createdAt,value
2023-02-07T00:00:04.830Z,1039.32
2023-02-07T00:16:02.156Z,1039.32
2023-02-07T00:31:04.358Z,1039.35
2023-02-07T00:46:01.204Z,1039.52
2023-02-07T01:00:03.241Z,1039.46
2023-02-07T01:16:05.330Z,1039.46
2023-02-07T01:31:02.511Z,1039.39
2023-02-07T01:46:04.792Z,1039.52
2023-02-07T02:00:01.430Z,1039.52
2023-02-07T02:16:03.798Z,1039.56
2023-02-07T02:31:00.902Z,1039.59
2023-02-07T02:46:02.767Z,1039.66
2023-02-07T03:00:04.657Z,1039.9
2023-02-07T03:16:01.870Z,1039.76
2023-02-07T03:31:03.855Z,1040
2023-02-07T03:46:00.692Z,1040.23
2023-02-07T04:00:02.704Z,1040.37
2023-02-07T04:16:04.940Z,1040.51
2023-02-07T04:31:01.924Z,1040.54
2023-02-07T04:46:03.983Z,1040.37
2023-02-07T05:00:00.760Z,1040.07
2023-02-07T05:16:02.850Z,1039.79
2023-02-07T05:31:05.005Z,1039.79
2023-02-07T05:46:02.066Z,1040.13
2023-02-07T06:00:03.989Z,1040.54
2023-02-07T06:16:01.005Z,1040.71
2023-02-07T06:31:03.159Z,1040.91
2023-02-07T06:46:05.138Z,1040.98
2023-02-07T07:00:01.991Z,1041.11
2023-02-07T07:16:04.081Z,1041.15
2023-02-07T07:31:01.106Z,1041.05
2023-02-07T07:46:04.143Z,1040.67
2023-02-07T08:00:05.199Z,1040.57
2023-02-07T08:16:02.462Z,1040.44
2023-02-07T08:31:04.431Z,1040.34
2023-02-07T08:46:01.781Z,1040.2
2023-02-07T09:00:03.895Z,1039.9
2023-02-07T09:16:00.784Z,1039.69
2023-02-07T09:31:05.164Z,1039.59
2023-02-07T09:46:05.516Z,1039.59
2023-02-07T10:00:01.507Z,1039.52
2023-02-07T10:16:04.026Z,1039.25
2023-02-07T10:31:00.905Z,1039.08
2023-02-07T10:46:06.224Z,1038.91
2023-02-07T11:00:05.012Z,1038.61
2023-02-07T11:16:02.287Z,1038.58
2023-02-07T11:31:04.482Z,1038.51
2023-02-07T11:46:01.495Z,1038.3
2023-02-07T12:00:03.470Z,1038.03
2023-02-07T12:16:00.815Z,1037.8
2023-02-07T12:31:04.088Z,1037.49
2023-02-07T12:46:04.928Z,1037.15
2023-02-07T13:00:01.620Z,1036.98
2023-02-07T13:16:03.512Z,1037.05
2023-02-07T13:31:05.471Z,1036.92
2023-02-07T13:46:02.762Z,1036.71
2023-02-07T14:00:04.565Z,1036.75
2023-02-07T14:16:01.712Z,1036.64
2023-02-07T14:31:03.725Z,1036.61
2023-02-07T14:46:00.906Z,1036.68
2023-02-07T15:00:02.856Z,1036.75
2023-02-07T15:16:05.076Z,1036.88
2023-02-07T15:31:02.126Z,1037.02
2023-02-07T15:46:03.662Z,1037.25
2023-02-07T16:00:05.396Z,1037.25
2023-02-07T16:16:02.815Z,1037.32
2023-02-07T16:31:04.751Z,1037.39
2023-02-07T16:46:01.569Z,1037.56
2023-02-07T17:00:03.216Z,1037.73
2023-02-07T17:16:00.490Z,1037.9
2023-02-07T17:31:02.576Z,1038.1
2023-02-07T17:46:04.340Z,1038.24
2023-02-07T18:00:01.278Z,1038.58
2023-02-07T18:16:03.539Z,1038.68
2023-02-07T18:31:05.576Z,1038.68
2023-02-07T18:46:02.386Z,1038.68
2023-02-07T19:00:04.742Z,1038.68
2023-02-07T19:16:01.562Z,1038.78
2023-02-07T19:31:03.565Z,1038.91
2023-02-07T19:46:00.735Z,1038.91
2023-02-07T20:00:02.607Z,1038.88
2023-02-07T20:16:04.916Z,1039.12
2023-02-07T20:31:01.912Z,1039.15
2023-02-07T20:46:03.862Z,1039.18
2023-02-07T21:00:00.791Z,1039.35
2023-02-07T21:16:03.725Z,1039.49
2023-02-07T21:31:05.090Z,1039.56
2023-02-07T21:46:01.990Z,1039.66
2023-02-07T22:00:04.005Z,1039.76
2023-02-07T22:16:01.112Z,1039.76
2023-02-07T22:31:03.171Z,1039.9
2023-02-07T22:46:05.282Z,1039.86
2023-02-07T23:00:01.897Z,1040.03
2023-02-07T23:16:03.917Z,1040.1
2023-02-07T23:31:01.058Z,1040.23
2023-02-07T23:46:03.076Z,1040.37
